Search for airport 
image banner adimage banner adimage banner ad
image banner ad

29CA - Landells

Located in Desert Hot Springs, United States

ICAO - 29CA, IATA -

Data provided by Airmate  

General information

Coordinates: N33°55'18" W116°27'12"
Elevation is 940 feet MSL.
Magnetic variation is 13° East
View others Airports in California

Operational data

Special qualification required
Current time UTC:
Current local time:
Weather at : KPSP - Palm Springs Intl ( 11 km )
METAR: KPSP 211353Z 02004KT 10SM CLR 28/19 A2988 RMK AO2 SLP113 T02830194
TAF: KPSP 211140Z 2112/2212 13006KT P6SM SKC FM212100 32012G20KT P6SM SKC FM220000 33015G28KT P6SM SKC FM220600 VRB04KT P6SM SKC
View NOTAMs / SUP AIP / TFR affecting this airport [VIEW]
Communications frequencies: [VIEW]

Runways:

Airport contact information

Address: Desert Hot Springs United States

Satellite view of 29CA